createdAt,value
2022-08-05T00:02:22.030Z,4.82
2022-08-05T00:04:55.145Z,3.22
2022-08-05T00:07:58.848Z,2.92
2022-08-05T00:10:10.052Z,3.58
2022-08-05T00:12:56.453Z,6.38
2022-08-05T00:15:56.161Z,2.92
2022-08-05T00:18:21.672Z,2.63
2022-08-05T00:20:50.392Z,3.47
2022-08-05T00:23:17.528Z,2.20
2022-08-05T00:26:04.763Z,2.33
2022-08-05T00:28:31.456Z,2.58
2022-08-05T00:31:02.990Z,2.28
2022-08-05T00:34:53.546Z,3.83
2022-08-05T00:37:13.011Z,2.25
2022-08-05T00:39:05.203Z,4.10
2022-08-05T00:41:52.053Z,3.20
2022-08-05T00:44:30.899Z,2.65
2022-08-05T00:47:03.723Z,3.65
2022-08-05T00:49:32.574Z,3.85
2022-08-05T00:52:00.287Z,5.40
2022-08-05T00:54:28.193Z,3.92
2022-08-05T00:56:57.016Z,2.97
2022-08-05T00:59:23.818Z,4.78
2022-08-05T01:01:51.074Z,2.70
2022-08-05T01:04:20.202Z,3.28
2022-08-05T01:06:53.469Z,4.95
2022-08-05T01:09:22.687Z,4.60
2022-08-05T01:11:52.256Z,3.70
2022-08-05T01:14:41.134Z,2.72
2022-08-05T01:17:54.231Z,3.10
2022-08-05T01:20:39.752Z,3.60
2022-08-05T01:23:23.731Z,3.20
2022-08-05T01:26:18.317Z,3.33
2022-08-05T01:28:57.219Z,3.53
2022-08-05T01:31:45.414Z,3.30
2022-08-05T01:34:36.956Z,3.03
2022-08-05T01:37:24.805Z,3.35
2022-08-05T01:39:58.992Z,4.05
2022-08-05T01:42:28.107Z,3.15
2022-08-05T01:45:02.289Z,3.28
2022-08-05T01:47:38.745Z,3.42
2022-08-05T01:50:16.163Z,3.88
2022-08-05T01:52:49.779Z,5.22
2022-08-05T01:55:20.362Z,2.85
2022-08-05T01:58:12.459Z,5.18
2022-08-05T02:00:39.716Z,2.95
2022-08-05T02:03:29.196Z,3.08
2022-08-05T02:06:03.688Z,2.90
2022-08-05T02:08:58.563Z,3.42
2022-08-05T02:11:33.456Z,2.72
2022-08-05T02:14:05.536Z,3.22
2022-08-05T02:16:52.938Z,2.30
2022-08-05T02:19:35.025Z,3.92
2022-08-05T02:22:04.784Z,2.97
2022-08-05T02:24:37.896Z,3.38
2022-08-05T02:27:09.896Z,3.58
2022-08-05T02:29:58.459Z,5.13
2022-08-05T02:32:29.404Z,2.90
2022-08-05T02:35:13.580Z,3.50
2022-08-05T02:37:47.840Z,3.17
2022-08-05T02:40:22.934Z,2.55
2022-08-05T02:42:54.158Z,3.15
2022-08-05T02:45:25.228Z,4.63
2022-08-05T02:48:06.860Z,4.15
2022-08-05T02:50:44.127Z,8.85
2022-08-05T02:53:18.698Z,5.00
2022-08-05T02:55:59.644Z,5.78
2022-08-05T02:58:28.788Z,3.33
2022-08-05T03:00:59.040Z,3.67
2022-08-05T03:03:28.570Z,3.00
2022-08-05T03:06:55.389Z,3.22
2022-08-05T03:08:52.163Z,3.40
2022-08-05T03:11:56.954Z,7.95
2022-08-05T03:14:13.386Z,10.82
2022-08-05T03:16:40.679Z,5.00
2022-08-05T03:19:16.811Z,3.83
2022-08-05T03:21:48.907Z,4.28
2022-08-05T03:24:30.228Z,5.70
2022-08-05T03:27:01.345Z,8.15
2022-08-05T03:29:45.782Z,4.35
2022-08-05T03:32:15.801Z,4.78
2022-08-05T03:34:50.677Z,4.70
2022-08-05T03:37:19.239Z,5.00
2022-08-05T03:39:59.357Z,4.97
2022-08-05T03:42:29.099Z,4.28
2022-08-05T03:44:56.059Z,4.32
2022-08-05T03:47:24.225Z,4.90
2022-08-05T03:49:52.419Z,3.50
2022-08-05T03:52:39.131Z,3.35
2022-08-05T03:56:04.637Z,3.53
2022-08-05T03:58:12.567Z,11.23
2022-08-05T04:00:42.030Z,3.20
2022-08-05T04:03:14.989Z,5.00
2022-08-05T04:05:57.624Z,4.30
2022-08-05T04:08:34.918Z,7.22
2022-08-05T04:11:05.187Z,2.53
2022-08-05T04:13:49.837Z,7.70
2022-08-05T04:16:25.030Z,4.60
2022-08-05T04:19:00.193Z,5.75
2022-08-05T04:22:08.506Z,10.57
2022-08-05T04:24:18.716Z,5.72
2022-08-05T04:26:46.660Z,5.90
2022-08-05T04:29:13.363Z,5.57
2022-08-05T04:31:41.259Z,4.60
2022-08-05T04:34:31.943Z,9.63
2022-08-05T04:36:56.457Z,9.70
2022-08-05T04:39:23.235Z,6.80
2022-08-05T04:41:51.411Z,6.60
2022-08-05T04:44:21.297Z,2.95
2022-08-05T04:46:58.389Z,7.03
2022-08-05T04:49:39.169Z,3.47
2022-08-05T04:52:12.347Z,7.03
2022-08-05T04:54:38.964Z,3.28
2022-08-05T04:57:05.682Z,7.30
2022-08-05T04:59:38.339Z,6.78
2022-08-05T05:02:36.407Z,2.75
2022-08-05T05:05:01.672Z,7.85
2022-08-05T05:07:31.942Z,4.00
2022-08-05T05:10:02.143Z,3.35
2022-08-05T05:12:29.814Z,3.80
2022-08-05T05:14:57.252Z,4.13
2022-08-05T05:17:55.853Z,4.90
2022-08-05T05:20:12.120Z,3.47
2022-08-05T05:22:40.790Z,6.05
2022-08-05T05:25:16.726Z,10.15
2022-08-05T05:27:53.464Z,3.63
2022-08-05T05:30:29.148Z,6.97
2022-08-05T05:33:00.613Z,5.00
2022-08-05T05:35:34.122Z,5.78
2022-08-05T05:38:03.444Z,6.13
2022-08-05T05:40:33.368Z,7.55
2022-08-05T05:43:02.086Z,3.30
2022-08-05T05:45:29.405Z,4.32
2022-08-05T05:48:07.007Z,4.70
2022-08-05T05:50:43.894Z,5.35
2022-08-05T05:53:22.550Z,3.80
2022-08-05T05:55:52.162Z,5.03
2022-08-05T05:58:31.881Z,5.25
2022-08-05T06:01:02.418Z,3.33
2022-08-05T06:03:53.932Z,7.68
2022-08-05T06:06:27.948Z,3.80
2022-08-05T06:08:57.483Z,3.80
2022-08-05T06:11:24.256Z,5.43
2022-08-05T06:13:54.045Z,3.20
2022-08-05T06:16:30.434Z,3.30
2022-08-05T06:19:01.115Z,5.15
2022-08-05T06:21:35.953Z,4.85
2022-08-05T06:24:04.733Z,5.97
2022-08-05T06:26:33.945Z,10.55
2022-08-05T06:29:06.484Z,5.40
2022-08-05T06:31:50.607Z,3.67
2022-08-05T06:34:19.865Z,6.13
2022-08-05T06:36:57.429Z,3.10
2022-08-05T06:39:26.940Z,3.00
2022-08-05T06:41:54.490Z,4.13
2022-08-05T06:44:22.007Z,3.83
2022-08-05T06:46:51.167Z,7.63
2022-08-05T06:49:18.987Z,4.28
2022-08-05T06:51:48.504Z,4.97
2022-08-05T06:54:18.156Z,5.38
2022-08-05T06:56:55.026Z,4.28
2022-08-05T06:59:38.741Z,6.07
2022-08-05T07:02:08.893Z,3.65
2022-08-05T07:04:35.734Z,6.22
2022-08-05T07:07:03.537Z,6.72
2022-08-05T07:09:37.468Z,5.18
2022-08-05T07:12:08.016Z,5.97
2022-08-05T07:14:54.053Z,7.03
2022-08-05T07:18:00.754Z,6.13
2022-08-05T07:20:32.262Z,6.70
2022-08-05T07:22:55.098Z,6.40
2022-08-05T07:25:55.084Z,6.15
2022-08-05T07:28:11.694Z,4.70
2022-08-05T07:30:43.898Z,4.53
2022-08-05T07:33:17.362Z,5.28
2022-08-05T07:36:03.642Z,3.83
2022-08-05T07:38:34.860Z,15.82
2022-08-05T07:42:08.122Z,7.13
2022-08-05T07:43:56.215Z,7.80
2022-08-05T07:46:25.360Z,4.10
2022-08-05T07:49:01.711Z,4.72
2022-08-05T07:51:40.911Z,4.95
2022-08-05T07:54:15.618Z,7.50
2022-08-05T07:57:13.727Z,7.55
2022-08-05T07:59:38.716Z,2.88
2022-08-05T08:02:16.168Z,3.08
2022-08-05T08:04:48.274Z,4.07
2022-08-05T08:07:16.451Z,2.88
2022-08-05T08:09:44.978Z,4.95
2022-08-05T08:12:35.013Z,3.38
2022-08-05T08:15:03.555Z,4.57
2022-08-05T08:17:32.049Z,3.78
2022-08-05T08:20:22.067Z,3.45
2022-08-05T08:22:55.635Z,4.72
2022-08-05T08:25:27.042Z,3.13
2022-08-05T08:28:18.541Z,4.80
2022-08-05T08:30:57.173Z,5.20
2022-08-05T08:33:24.010Z,1.83
2022-08-05T08:36:12.782Z,3.78
2022-08-05T08:38:40.623Z,2.95
2022-08-05T08:41:10.756Z,1.98
2022-08-05T08:45:20.311Z,5.05
2022-08-05T08:46:31.449Z,4.25
2022-08-05T08:49:17.407Z,3.85
2022-08-05T08:52:05.672Z,1.63
2022-08-05T08:54:34.156Z,1.65
2022-08-05T08:57:11.233Z,1.10
2022-08-05T08:59:38.761Z,2.20
2022-08-05T09:02:09.067Z,1.30
2022-08-05T09:04:58.235Z,1.98
2022-08-05T09:07:28.956Z,1.50
2022-08-05T09:09:56.447Z,2.00
2022-08-05T09:12:27.313Z,1.95
2022-08-05T09:15:04.795Z,0.95
2022-08-05T09:17:40.909Z,2.78
2022-08-05T09:20:11.266Z,1.67
2022-08-05T09:23:09.552Z,1.58
2022-08-05T09:26:00.240Z,0.90
2022-08-05T09:28:31.475Z,1.85
2022-08-05T09:31:43.624Z,4.60
2022-08-05T09:34:05.110Z,1.00
2022-08-05T09:36:54.944Z,1.10
2022-08-05T09:39:27.629Z,2.20
2022-08-05T09:42:08.846Z,2.08
2022-08-05T09:44:42.820Z,1.48
2022-08-05T09:47:23.930Z,0.98
2022-08-05T09:50:01.408Z,1.00
2022-08-05T09:52:34.856Z,0.93
2022-08-05T09:55:57.214Z,1.25
2022-08-05T09:57:58.513Z,0.85
2022-08-05T10:00:26.674Z,1.75
2022-08-05T10:02:58.344Z,2.28
2022-08-05T10:05:28.462Z,1.05
2022-08-05T10:08:35.256Z,1.63
2022-08-05T10:10:43.926Z,1.27
2022-08-05T10:13:10.921Z,0.60
2022-08-05T10:15:41.995Z,0.65
2022-08-05T10:18:21.549Z,3.08
2022-08-05T10:20:57.455Z,0.60
2022-08-05T10:23:55.289Z,3.40
2022-08-05T10:26:14.895Z,0.60
2022-08-05T10:28:46.765Z,0.80
2022-08-05T10:32:54.349Z,2.38
2022-08-05T10:34:07.179Z,1.15
2022-08-05T10:36:39.698Z,2.30
2022-08-05T10:39:24.310Z,2.55
2022-08-05T10:42:33.379Z,0.90
2022-08-05T10:45:02.368Z,0.70
2022-08-05T10:48:30.313Z,1.13
2022-08-05T10:51:03.309Z,2.45
2022-08-05T10:53:38.104Z,2.70
2022-08-05T10:56:25.451Z,0.60
2022-08-05T10:58:55.889Z,2.85
2022-08-05T11:01:54.837Z,2.10
2022-08-05T11:04:22.151Z,1.95
2022-08-05T11:07:04.537Z,1.60
2022-08-05T11:09:46.312Z,3.65
2022-08-05T11:12:41.246Z,1.15
2022-08-05T11:15:20.437Z,2.72
2022-08-05T11:17:59.193Z,1.95
2022-08-05T11:20:38.972Z,0.70
2022-08-05T11:24:04.208Z,3.55
2022-08-05T11:26:28.328Z,3.22
2022-08-05T11:28:56.659Z,5.75
2022-08-05T11:31:58.744Z,1.30
2022-08-05T11:34:36.687Z,1.67
2022-08-05T11:37:06.218Z,0.70
2022-08-05T11:40:00.844Z,0.75
2022-08-05T11:42:40.311Z,1.35
2022-08-05T11:45:14.529Z,1.00
2022-08-05T11:47:55.251Z,1.30
2022-08-05T11:50:22.822Z,0.80
2022-08-05T11:52:53.186Z,1.90
2022-08-05T11:55:24.038Z,0.85
2022-08-05T11:58:10.720Z,3.58
2022-08-05T12:00:41.157Z,0.80
2022-08-05T12:03:28.746Z,1.02
2022-08-05T12:06:06.261Z,1.33
2022-08-05T12:08:49.889Z,2.45
2022-08-05T12:11:28.446Z,0.70
2022-08-05T12:14:08.630Z,0.70
2022-08-05T12:16:45.543Z,1.45
2022-08-05T12:20:16.991Z,2.40
2022-08-05T12:22:01.242Z,2.58
2022-08-05T12:24:28.159Z,1.63
2022-08-05T12:26:56.842Z,1.33
2022-08-05T12:29:25.298Z,0.57
2022-08-05T12:32:01.715Z,3.13
2022-08-05T12:34:31.917Z,2.05
2022-08-05T12:37:03.270Z,2.05
2022-08-05T12:39:37.048Z,0.95
2022-08-05T12:42:14.803Z,1.50
2022-08-05T12:44:43.139Z,0.93
2022-08-05T12:47:12.703Z,2.45
2022-08-05T12:50:02.124Z,1.90
2022-08-05T12:52:31.246Z,1.10
2022-08-05T12:55:22.085Z,2.10
2022-08-05T12:58:49.250Z,2.08
2022-08-05T13:02:01.159Z,0.80
2022-08-05T13:03:32.340Z,1.40
2022-08-05T13:06:00.911Z,0.90
2022-08-05T13:08:32.157Z,0.93
2022-08-05T13:11:02.414Z,1.90
2022-08-05T13:14:05.052Z,2.92
2022-08-05T13:16:19.596Z,1.75
2022-08-05T13:18:58.378Z,0.95
2022-08-05T13:21:28.201Z,2.17
2022-08-05T13:24:04.852Z,0.73
2022-08-05T13:26:31.564Z,0.75
2022-08-05T13:28:59.122Z,1.10
2022-08-05T13:31:33.813Z,0.80
2022-08-05T13:34:22.983Z,1.95
2022-08-05T13:36:52.714Z,1.17
2022-08-05T13:40:13.415Z,1.05
2022-08-05T13:42:06.583Z,0.63
2022-08-05T13:44:34.687Z,1.10
2022-08-05T13:47:08.551Z,1.02
2022-08-05T13:49:35.615Z,0.77
2022-08-05T13:52:16.250Z,1.02
2022-08-05T13:54:43.103Z,0.80
2022-08-05T13:57:20.888Z,1.85
2022-08-05T13:59:55.437Z,1.25
2022-08-05T14:02:26.595Z,2.08
2022-08-05T14:05:15.072Z,0.60
2022-08-05T14:07:59.576Z,1.98
2022-08-05T14:10:31.070Z,0.50
2022-08-05T14:12:58.622Z,0.80
2022-08-05T14:16:05.045Z,2.63
2022-08-05T14:18:17.517Z,0.50
2022-08-05T14:20:47.858Z,0.60
2022-08-05T14:23:24.793Z,0.60
2022-08-05T14:25:57.969Z,0.77
2022-08-05T14:28:28.769Z,1.20
2022-08-05T14:30:56.963Z,3.05
2022-08-05T14:33:23.988Z,1.05
2022-08-05T14:35:51.791Z,0.98
2022-08-05T14:38:31.571Z,0.68
2022-08-05T14:41:05.997Z,2.50
2022-08-05T14:44:00.073Z,0.60
2022-08-05T14:46:28.366Z,0.80
2022-08-05T14:48:58.741Z,2.15
2022-08-05T14:51:30.716Z,1.77
2022-08-05T14:54:26.619Z,1.02
2022-08-05T14:56:46.761Z,1.88
2022-08-05T14:59:14.528Z,0.57
2022-08-05T15:01:48.487Z,2.55
2022-08-05T15:04:16.779Z,0.60
2022-08-05T15:06:49.264Z,1.33
2022-08-05T15:09:50.463Z,1.17
2022-08-05T15:12:05.253Z,1.88
2022-08-05T15:14:34.511Z,0.82
2022-08-05T15:17:05.406Z,0.50
2022-08-05T15:19:36.799Z,1.10
2022-08-05T15:22:05.984Z,0.85
2022-08-05T15:24:32.723Z,1.48
2022-08-05T15:26:59.337Z,0.60
2022-08-05T15:29:30.086Z,0.50
2022-08-05T15:31:57.500Z,1.33
2022-08-05T15:34:32.443Z,0.70
2022-08-05T15:37:06.462Z,1.83
2022-08-05T15:40:58.832Z,0.93
2022-08-05T15:42:54.624Z,0.60
2022-08-05T15:45:10.490Z,0.77
2022-08-05T15:47:38.517Z,0.95
2022-08-05T15:50:07.313Z,2.13
2022-08-05T15:52:53.392Z,2.92
2022-08-05T15:55:25.094Z,0.73
2022-08-05T15:58:08.736Z,1.30
2022-08-05T16:00:50.475Z,0.60
2022-08-05T16:03:22.038Z,0.60
2022-08-05T16:05:52.628Z,0.52
2022-08-05T16:08:22.610Z,0.60
2022-08-05T16:10:50.710Z,2.25
2022-08-05T16:13:19.313Z,2.55
2022-08-05T16:15:52.062Z,1.05
2022-08-05T16:18:19.090Z,2.15
2022-08-05T16:20:46.382Z,0.98
2022-08-05T16:23:12.997Z,2.17
2022-08-05T16:25:40.351Z,0.60
2022-08-05T16:28:10.567Z,0.88
2022-08-05T16:30:37.510Z,0.95
2022-08-05T16:33:04.502Z,1.95
2022-08-05T16:35:32.434Z,0.52
2022-08-05T16:38:03.553Z,0.98
2022-08-05T16:40:52.164Z,0.73
2022-08-05T16:43:28.475Z,0.93
2022-08-05T16:46:06.775Z,0.52
2022-08-05T16:48:39.613Z,0.93
2022-08-05T16:51:09.860Z,1.08
2022-08-05T16:54:02.866Z,1.02
2022-08-05T16:56:27.277Z,5.43
2022-08-05T16:58:54.119Z,1.00
2022-08-05T17:01:21.231Z,1.45
2022-08-05T17:03:52.012Z,0.73
2022-08-05T17:06:19.411Z,0.95
2022-08-05T17:08:53.495Z,0.88
2022-08-05T17:11:23.371Z,1.30
2022-08-05T17:14:00.270Z,1.65
2022-08-05T17:16:37.861Z,2.17
2022-08-05T17:19:09.601Z,1.95
2022-08-05T17:21:39.630Z,0.80
2022-08-05T17:24:20.510Z,0.85
2022-08-05T17:26:56.427Z,1.30
2022-08-05T17:29:40.215Z,3.75
2022-08-05T17:32:17.102Z,1.45
2022-08-05T17:34:48.174Z,0.73
2022-08-05T17:37:40.938Z,2.05
2022-08-05T17:40:25.072Z,0.80
2022-08-05T17:42:53.057Z,2.55
2022-08-05T17:45:22.428Z,1.42
2022-08-05T17:47:55.342Z,2.47
2022-08-05T17:50:28.204Z,1.25
2022-08-05T17:52:59.077Z,0.95
2022-08-05T17:55:27.331Z,1.85
2022-08-05T17:58:02.292Z,2.50
2022-08-05T18:00:29.662Z,1.75
2022-08-05T18:02:56.967Z,1.10
2022-08-05T18:05:24.052Z,1.50
2022-08-05T18:07:55.142Z,2.85
2022-08-05T18:10:24.261Z,3.15
2022-08-05T18:12:51.290Z,3.53
2022-08-05T18:15:18.092Z,3.10
2022-08-05T18:18:01.212Z,1.95
2022-08-05T18:20:32.384Z,4.40
2022-08-05T18:23:11.868Z,7.18
2022-08-05T18:25:44.899Z,3.17
2022-08-05T18:28:16.365Z,5.60
2022-08-05T18:30:45.190Z,1.85
2022-08-05T18:33:13.545Z,2.78
2022-08-05T18:36:00.774Z,3.47
2022-08-05T18:38:28.320Z,2.05
2022-08-05T18:41:57.176Z,1.52
2022-08-05T18:43:43.139Z,3.45
2022-08-05T18:46:16.232Z,2.08
2022-08-05T18:48:51.579Z,2.03
2022-08-05T18:52:04.236Z,5.50
2022-08-05T18:54:30.944Z,4.38
2022-08-05T18:57:00.904Z,17.52
2022-08-05T18:59:42.874Z,3.53
2022-08-05T19:02:26.604Z,3.08
2022-08-05T19:05:02.153Z,3.47
2022-08-05T19:07:45.124Z,4.05
2022-08-05T19:10:12.422Z,4.85
2022-08-05T19:12:39.090Z,4.20
2022-08-05T19:15:06.238Z,1.75
2022-08-05T19:18:08.826Z,3.95
2022-08-05T19:20:41.330Z,2.83
2022-08-05T19:24:03.688Z,3.03
2022-08-05T19:26:02.015Z,2.97
2022-08-05T19:28:30.785Z,5.07
2022-08-05T19:30:57.833Z,3.00
2022-08-05T19:33:35.194Z,3.55
2022-08-05T19:36:07.016Z,3.38
2022-08-05T19:38:36.888Z,4.18
2022-08-05T19:41:07.282Z,2.75
2022-08-05T19:44:04.624Z,5.80
2022-08-05T19:46:29.579Z,4.53
2022-08-05T19:49:00.892Z,6.80
2022-08-05T19:51:56.562Z,2.97
2022-08-05T19:54:26.826Z,3.10
2022-08-05T19:56:59.165Z,4.95
2022-08-05T19:59:55.368Z,5.15
2022-08-05T20:02:14.640Z,4.60
2022-08-05T20:04:43.032Z,2.58
2022-08-05T20:07:10.294Z,7.15
2022-08-05T20:09:55.092Z,3.08
2022-08-05T20:12:24.420Z,4.88
2022-08-05T20:14:53.090Z,3.80
2022-08-05T20:17:23.482Z,8.45
2022-08-05T20:19:56.707Z,9.18
2022-08-05T20:22:26.785Z,7.28
2022-08-05T20:24:55.760Z,7.13
2022-08-05T20:27:26.785Z,6.57
2022-08-05T20:29:57.811Z,3.75
2022-08-05T20:32:27.261Z,7.93
2022-08-05T20:34:54.900Z,11.95
2022-08-05T20:38:04.796Z,9.68
2022-08-05T20:40:09.284Z,10.57
2022-08-05T20:42:36.347Z,8.07
2022-08-05T20:45:04.208Z,5.07
2022-08-05T20:47:32.733Z,10.90
2022-08-05T20:50:02.100Z,7.18
2022-08-05T20:52:29.558Z,4.35
2022-08-05T20:55:54.994Z,8.82
2022-08-05T20:57:44.804Z,7.78
2022-08-05T21:00:40.172Z,8.77
2022-08-05T21:03:07.357Z,9.50
2022-08-05T21:05:48.229Z,7.55
2022-08-05T21:08:26.875Z,4.72
2022-08-05T21:11:09.866Z,5.28
2022-08-05T21:13:48.337Z,8.15
2022-08-05T21:16:29.377Z,6.03
2022-08-05T21:19:01.369Z,6.45
2022-08-05T21:21:39.305Z,11.73
2022-08-05T21:24:12.870Z,9.07
2022-08-05T21:26:41.384Z,7.10
2022-08-05T21:29:12.644Z,8.40
2022-08-05T21:31:43.540Z,11.70
2022-08-05T21:34:11.357Z,8.32
2022-08-05T21:36:38.662Z,11.85
2022-08-05T21:39:05.493Z,13.60
2022-08-05T21:41:35.407Z,11.93
2022-08-05T21:44:04.364Z,11.30
2022-08-05T21:46:35.035Z,12.70
2022-08-05T21:49:04.768Z,12.05
2022-08-05T21:52:21.689Z,15.55
2022-08-05T21:54:27.865Z,17.00
2022-08-05T21:57:15.468Z,16.98
2022-08-05T22:00:03.000Z,18.30
2022-08-05T22:02:30.351Z,14.18
2022-08-05T22:04:58.585Z,14.25
2022-08-05T22:07:40.392Z,13.55
2022-08-05T22:10:12.894Z,11.90
2022-08-05T22:12:45.092Z,11.88
2022-08-05T22:16:01.704Z,12.30
2022-08-05T22:18:05.647Z,9.43
2022-08-05T22:20:32.558Z,9.55
2022-08-05T22:23:21.399Z,7.57
2022-08-05T22:26:09.684Z,6.15
2022-08-05T22:28:38.577Z,9.50
2022-08-05T22:31:06.259Z,7.70
2022-08-05T22:33:58.407Z,6.72
2022-08-05T22:36:24.112Z,7.50
2022-08-05T22:38:51.686Z,6.35
2022-08-05T22:42:05.044Z,5.90
2022-08-05T22:44:09.362Z,6.90
2022-08-05T22:46:39.862Z,10.48
2022-08-05T22:49:23.058Z,5.70
2022-08-05T22:52:05.772Z,7.18
2022-08-05T22:54:37.703Z,6.35
2022-08-05T22:57:06.678Z,10.60
2022-08-05T22:59:45.894Z,9.52
2022-08-05T23:02:17.911Z,6.38
2022-08-05T23:04:51.577Z,4.97
2022-08-05T23:07:22.100Z,3.85
2022-08-05T23:09:58.580Z,4.75
2022-08-05T23:12:32.894Z,5.05
2022-08-05T23:15:08.536Z,5.10
2022-08-05T23:17:59.731Z,4.72
2022-08-05T23:20:23.442Z,4.72
2022-08-05T23:22:54.155Z,4.80
2022-08-05T23:25:51.361Z,3.72
2022-08-05T23:28:09.898Z,4.05
2022-08-05T23:30:40.174Z,7.80
2022-08-05T23:33:16.224Z,4.15
2022-08-05T23:35:50.653Z,4.97
2022-08-05T23:38:18.029Z,5.07
2022-08-05T23:40:50.017Z,4.53
2022-08-05T23:43:25.472Z,5.10
2022-08-05T23:46:20.633Z,5.47
2022-08-05T23:49:00.490Z,4.82
2022-08-05T23:51:54.218Z,4.55
2022-08-05T23:54:29.986Z,4.90
2022-08-05T23:57:04.101Z,5.32
